Time;durP1;ratioP1;P1;durP2;ratioP2;P2;SDS_P1;SDS_P2;PMS_P1;PMS_P2;Temp;Humidity;BMP_temperature;BMP_pressure;BME280_temperature;BME280_humidity;BME280_pressure;Samples;Min_cycle;Max_cycle;Signal;HPM_P1;HPM_P2
2023/06/28 00:01:08;;;;;;;5.70;3.03;;;;;;;;;;5054523;28;20126;-77
2023/06/28 00:03:35;;;;;;;8.25;3.38;;;;;;;;;;5054822;28;20124;-77
2023/06/28 00:06:03;;;;;;;5.35;2.92;;;;;;;;;;5054805;28;20131;-76
2023/06/28 00:08:30;;;;;;;5.78;3.10;;;;;;;;;;5053778;28;20049;-77
2023/06/28 00:10:57;;;;;;;5.20;3.00;;;;;;;;;;5052870;28;20140;-76
2023/06/28 00:13:24;;;;;;;6.28;3.13;;;;;;;;;;5052263;28;20128;-77
2023/06/28 00:15:51;;;;;;;9.48;3.25;;;;;;;;;;5056090;28;20045;-75
2023/06/28 00:18:17;;;;;;;4.78;2.72;;;;;;;;;;5061538;28;20098;-76
2023/06/28 00:20:44;;;;;;;5.47;3.03;;;;;;;;;;5058032;28;20065;-77
2023/06/28 00:23:13;;;;;;;5.57;3.10;;;;;;;;;;5053852;28;20053;-76
2023/06/28 00:25:41;;;;;;;4.30;2.92;;;;;;;;;;5053161;28;20079;-78
2023/06/28 00:28:07;;;;;;;7.20;3.17;;;;;;;;;;5052681;28;20068;-77
2023/06/28 00:30:34;;;;;;;5.65;2.80;;;;;;;;;;5033453;28;20049;-77
2023/06/28 00:33:01;;;;;;;5.85;2.90;;;;;;;;;;5046742;28;20076;-77
2023/06/28 00:35:27;;;;;;;5.28;3.00;;;;;;;;;;5052720;28;20087;-76
2023/06/28 00:37:54;;;;;;;5.63;3.00;;;;;;;;;;5052093;28;20041;-77
2023/06/28 00:40:22;;;;;;;6.00;2.97;;;;;;;;;;5052070;28;20176;-76
2023/06/28 00:42:49;;;;;;;6.07;2.90;;;;;;;;;;5052007;28;20131;-77
2023/06/28 00:45:15;;;;;;;4.45;3.30;;;;;;;;;;5052033;28;20131;-76
2023/06/28 00:47:44;;;;;;;6.35;3.10;;;;;;;;;;5051850;28;20131;-75
2023/06/28 00:50:11;;;;;;;5.75;3.17;;;;;;;;;;5051317;28;20132;-77
2023/06/28 00:52:38;;;;;;;4.40;2.97;;;;;;;;;;5051342;28;20419;-77
2023/06/28 00:55:05;;;;;;;6.63;3.20;;;;;;;;;;5051775;28;20128;-77
2023/06/28 00:57:33;;;;;;;5.70;3.75;;;;;;;;;;5051646;28;20514;-76
2023/06/28 01:00:01;;;;;;;4.95;3.10;;;;;;;;;;5051465;28;20052;-77
2023/06/28 01:02:29;;;;;;;5.22;3.38;;;;;;;;;;5034094;28;20049;-77
2023/06/28 01:04:57;;;;;;;5.40;3.20;;;;;;;;;;5050942;28;20053;-76
2023/06/28 01:07:26;;;;;;;5.63;4.00;;;;;;;;;;5050725;28;20055;-76
2023/06/28 01:09:52;;;;;;;5.55;3.30;;;;;;;;;;5031590;28;20120;-77
2023/06/28 01:12:19;;;;;;;5.25;3.50;;;;;;;;;;5048735;28;20128;-77
2023/06/28 01:14:47;;;;;;;5.90;3.40;;;;;;;;;;5051177;28;20424;-77
2023/06/28 01:17:14;;;;;;;6.65;3.75;;;;;;;;;;5051481;28;20138;-76
2023/06/28 01:19:41;;;;;;;6.53;3.92;;;;;;;;;;5050981;28;20128;-77
2023/06/28 01:22:09;;;;;;;6.68;3.75;;;;;;;;;;5051576;28;20103;-75
2023/06/28 01:24:39;;;;;;;5.53;3.80;;;;;;;;;;5053249;28;20099;-76
2023/06/28 01:27:09;;;;;;;7.03;4.03;;;;;;;;;;5055191;28;20092;-77
2023/06/28 01:29:36;;;;;;;5.55;3.95;;;;;;;;;;5044025;28;20737;-78
2023/06/28 01:32:05;;;;;;;5.90;3.90;;;;;;;;;;5052007;28;20046;-78
2023/06/28 01:34:31;;;;;;;6.88;4.35;;;;;;;;;;5039232;28;20061;-77
2023/06/28 01:37:01;;;;;;;6.63;3.92;;;;;;;;;;5075087;28;20144;-78
2023/06/28 01:39:30;;;;;;;7.32;3.65;;;;;;;;;;5074690;28;20127;-76
2023/06/28 01:41:59;;;;;;;5.78;4.10;;;;;;;;;;5075170;28;20127;-76
2023/06/28 01:44:26;;;;;;;5.35;3.53;;;;;;;;;;5074647;28;20749;-77
2023/06/28 01:46:53;;;;;;;6.55;4.15;;;;;;;;;;5074590;28;20131;-77
2023/06/28 01:49:19;;;;;;;8.27;4.00;;;;;;;;;;5074579;28;20052;-77
2023/06/28 01:51:46;;;;;;;7.97;4.00;;;;;;;;;;5074532;28;20418;-77
2023/06/28 01:54:13;;;;;;;5.32;3.15;;;;;;;;;;5074855;28;20083;-76
2023/06/28 01:56:39;;;;;;;6.30;3.97;;;;;;;;;;5044087;28;20128;-77
2023/06/28 01:59:07;;;;;;;4.93;3.00;;;;;;;;;;5034733;28;20055;-77
2023/06/28 02:01:34;;;;;;;6.88;4.25;;;;;;;;;;5035100;28;20045;-78
2023/06/28 02:04:01;;;;;;;5.85;3.45;;;;;;;;;;5035668;28;20132;-77
2023/06/28 02:06:28;;;;;;;5.97;3.67;;;;;;;;;;5070548;28;20487;-79
2023/06/28 02:08:55;;;;;;;5.50;3.45;;;;;;;;;;5074314;28;20085;-76
2023/06/28 02:11:22;;;;;;;5.72;3.35;;;;;;;;;;5074766;28;20044;-77
2023/06/28 02:13:48;;;;;;;5.25;3.00;;;;;;;;;;5074730;28;20127;-77
2023/06/28 02:16:16;;;;;;;4.95;3.47;;;;;;;;;;5074508;28;20045;-77
2023/06/28 02:18:45;;;;;;;5.38;2.97;;;;;;;;;;5074014;28;20091;-77
2023/06/28 02:21:12;;;;;;;4.57;3.00;;;;;;;;;;5074870;28;20075;-79
2023/06/28 02:23:38;;;;;;;4.53;2.88;;;;;;;;;;5074416;28;20044;-77
2023/06/28 02:26:05;;;;;;;5.57;3.10;;;;;;;;;;5074403;28;20091;-76
2023/06/28 02:28:32;;;;;;;5.40;2.88;;;;;;;;;;5057720;28;20129;-76
2023/06/28 02:30:58;;;;;;;4.60;2.58;;;;;;;;;;5046742;28;20050;-78
2023/06/28 02:33:26;;;;;;;5.00;2.78;;;;;;;;;;5034306;28;20041;-77
2023/06/28 02:35:53;;;;;;;4.55;2.70;;;;;;;;;;5033842;28;20045;-76
2023/06/28 02:38:19;;;;;;;5.30;2.70;;;;;;;;;;5033888;28;20487;-76
2023/06/28 02:40:46;;;;;;;5.35;3.22;;;;;;;;;;5034275;28;20059;-77
2023/06/28 02:43:13;;;;;;;5.07;2.67;;;;;;;;;;5033788;28;20053;-77
2023/06/28 02:45:40;;;;;;;6.38;3.05;;;;;;;;;;5043465;28;20132;-77
2023/06/28 02:48:06;;;;;;;5.35;2.78;;;;;;;;;;5057068;28;20118;-76
2023/06/28 02:50:34;;;;;;;5.63;2.80;;;;;;;;;;5065185;28;20113;-77
2023/06/28 02:53:01;;;;;;;4.55;2.90;;;;;;;;;;5056523;28;20094;-78
2023/06/28 02:55:28;;;;;;;4.38;2.78;;;;;;;;;;5053839;28;20114;-77
2023/06/28 02:57:54;;;;;;;4.40;2.72;;;;;;;;;;5053262;28;20041;-77
2023/06/28 03:00:21;;;;;;;4.72;2.90;;;;;;;;;;5053112;28;20052;-78
2023/06/28 03:02:48;;;;;;;4.70;3.08;;;;;;;;;;5053190;28;20515;-77
2023/06/28 03:05:15;;;;;;;7.28;2.80;;;;;;;;;;5053709;28;20049;-77
2023/06/28 03:07:42;;;;;;;5.68;3.10;;;;;;;;;;5053273;28;20045;-78
2023/06/28 03:10:09;;;;;;;5.53;3.08;;;;;;;;;;5052839;28;20056;-77
2023/06/28 03:12:36;;;;;;;4.60;3.35;;;;;;;;;;5053379;28;20052;-77
2023/06/28 03:15:03;;;;;;;6.47;3.25;;;;;;;;;;5052815;28;20041;-77
2023/06/28 03:17:30;;;;;;;7.60;3.20;;;;;;;;;;5053018;28;20041;-78
2023/06/28 03:19:56;;;;;;;6.72;3.25;;;;;;;;;;5052959;28;20059;-76
2023/06/28 03:22:23;;;;;;;5.80;3.30;;;;;;;;;;5053137;28;20055;-76
2023/06/28 03:24:51;;;;;;;3.90;2.70;;;;;;;;;;5053585;28;20076;-77
2023/06/28 03:27:19;;;;;;;5.35;3.00;;;;;;;;;;5053284;28;20057;-76
2023/06/28 03:29:45;;;;;;;5.85;3.35;;;;;;;;;;5052486;28;20049;-76
2023/06/28 03:32:12;;;;;;;5.57;3.50;;;;;;;;;;5040031;28;20128;-77
2023/06/28 03:34:38;;;;;;;6.75;3.88;;;;;;;;;;5040870;28;20075;-78
2023/06/28 03:37:07;;;;;;;6.22;3.40;;;;;;;;;;5032433;28;20136;-78
2023/06/28 03:39:34;;;;;;;5.75;3.70;;;;;;;;;;5032284;28;20053;-77
2023/06/28 03:42:02;;;;;;;4.90;3.25;;;;;;;;;;5032979;28;20132;-77
2023/06/28 03:44:29;;;;;;;6.10;3.40;;;;;;;;;;5032928;28;20056;-76
2023/06/28 03:46:56;;;;;;;5.55;3.75;;;;;;;;;;5032414;28;20126;-78
2023/06/28 03:49:22;;;;;;;7.03;4.32;;;;;;;;;;5032291;28;20045;-76
2023/06/28 03:51:49;;;;;;;8.20;4.35;;;;;;;;;;5052481;28;20076;-78
2023/06/28 03:54:16;;;;;;;6.07;4.45;;;;;;;;;;5052486;28;20476;-77
2023/06/28 03:56:42;;;;;;;6.20;4.40;;;;;;;;;;5052423;28;20128;-76
2023/06/28 03:59:10;;;;;;;7.95;4.63;;;;;;;;;;5051753;28;20080;-79
2023/06/28 04:01:38;;;;;;;8.07;4.97;;;;;;;;;;5052194;28;20587;-77
2023/06/28 04:04:05;;;;;;;6.82;5.05;;;;;;;;;;5052370;28;20041;-76
2023/06/28 04:06:32;;;;;;;6.82;4.60;;;;;;;;;;5052533;28;20055;-77
2023/06/28 04:08:58;;;;;;;5.72;4.47;;;;;;;;;;5051936;28;20140;-76
2023/06/28 04:11:25;;;;;;;6.90;4.95;;;;;;;;;;5051862;28;20084;-78
2023/06/28 04:13:52;;;;;;;7.05;5.38;;;;;;;;;;5054762;28;20045;-78
2023/06/28 04:16:20;;;;;;;6.03;4.53;;;;;;;;;;5061505;28;20120;-78
2023/06/28 04:18:46;;;;;;;6.40;4.70;;;;;;;;;;5061533;28;20045;-78
2023/06/28 04:21:13;;;;;;;8.55;4.82;;;;;;;;;;5061130;28;20064;-78
2023/06/28 04:23:39;;;;;;;6.85;4.90;;;;;;;;;;5060142;28;20053;-78
2023/06/28 04:26:06;;;;;;;7.82;4.88;;;;;;;;;;5067144;28;20076;-78
2023/06/28 04:28:33;;;;;;;6.72;5.30;;;;;;;;;;5059744;28;20427;-78
2023/06/28 04:30:59;;;;;;;8.18;5.68;;;;;;;;;;5056275;28;20073;-78
2023/06/28 04:33:30;;;;;;;7.63;5.50;;;;;;;;;;5056910;28;20056;-78
2023/06/28 04:35:57;;;;;;;7.38;5.28;;;;;;;;;;5045300;28;20067;-78
2023/06/28 04:38:24;;;;;;;7.97;5.00;;;;;;;;;;5043760;28;20041;-78
2023/06/28 04:40:51;;;;;;;7.20;5.05;;;;;;;;;;5063525;28;20041;-78
2023/06/28 04:43:20;;;;;;;7.18;5.30;;;;;;;;;;5055845;28;20036;-78
2023/06/28 04:45:48;;;;;;;5.87;5.17;;;;;;;;;;5045223;28;20057;-77
2023/06/28 04:48:15;;;;;;;6.60;5.15;;;;;;;;;;5038303;28;20068;-78
2023/06/28 04:50:47;;;;;;;6.13;5.00;;;;;;;;;;5047238;28;20075;-78
2023/06/28 04:53:14;;;;;;;6.18;5.07;;;;;;;;;;5056982;28;20041;-78
2023/06/28 04:55:43;;;;;;;6.88;4.43;;;;;;;;;;5056827;28;20132;-78
2023/06/28 04:58:10;;;;;;;6.35;4.80;;;;;;;;;;5054896;28;20191;-77
2023/06/28 05:00:38;;;;;;;6.95;5.22;;;;;;;;;;5060396;28;20397;-78
2023/06/28 05:03:05;;;;;;;8.27;5.50;;;;;;;;;;5052223;28;20045;-78
2023/06/28 05:05:31;;;;;;;7.15;5.32;;;;;;;;;;5060604;28;20106;-78
2023/06/28 05:08:00;;;;;;;7.93;5.20;;;;;;;;;;5041772;28;20091;-78
2023/06/28 05:10:27;;;;;;;7.43;4.82;;;;;;;;;;5039769;28;20095;-78
2023/06/28 05:12:54;;;;;;;6.55;5.30;;;;;;;;;;5051881;28;20046;-78
2023/06/28 05:15:21;;;;;;;7.78;5.05;;;;;;;;;;5061111;28;20040;-78
2023/06/28 05:17:48;;;;;;;8.02;5.65;;;;;;;;;;5052418;28;20064;-78
2023/06/28 05:20:14;;;;;;;8.02;6.78;;;;;;;;;;5048137;28;20050;-78
2023/06/28 05:22:42;;;;;;;8.43;6.47;;;;;;;;;;5080708;28;20156;-78
2023/06/28 05:25:10;;;;;;;7.00;5.60;;;;;;;;;;5064915;28;20140;-78
2023/06/28 05:27:37;;;;;;;8.40;6.40;;;;;;;;;;5059767;28;20108;-78
2023/06/28 05:30:04;;;;;;;9.82;5.68;;;;;;;;;;5059910;28;20048;-78
2023/06/28 05:32:31;;;;;;;9.45;6.13;;;;;;;;;;5061135;28;20052;-78
2023/06/28 05:34:57;;;;;;;9.43;6.30;;;;;;;;;;5060946;28;20057;-78
2023/06/28 05:37:24;;;;;;;9.18;5.38;;;;;;;;;;5060993;28;20080;-78
2023/06/28 05:39:50;;;;;;;9.32;5.97;;;;;;;;;;5060348;28;20096;-78
2023/06/28 05:42:19;;;;;;;8.45;6.10;;;;;;;;;;5061266;28;20088;-79
2023/06/28 05:44:45;;;;;;;9.85;6.22;;;;;;;;;;5060819;28;20049;-78
2023/06/28 05:47:12;;;;;;;5.80;4.60;;;;;;;;;;5052307;28;20080;-76
2023/06/28 05:49:40;;;;;;;6.90;4.32;;;;;;;;;;5071525;28;20052;-78
2023/06/28 05:52:08;;;;;;;7.38;4.70;;;;;;;;;;5099482;28;20095;-78
2023/06/28 05:54:34;;;;;;;7.25;4.80;;;;;;;;;;5082622;28;20059;-78
2023/06/28 05:57:01;;;;;;;6.72;5.10;;;;;;;;;;5057706;28;20106;-78
2023/06/28 05:59:30;;;;;;;7.53;5.22;;;;;;;;;;5059162;28;20133;-78
2023/06/28 06:01:57;;;;;;;10.70;5.18;;;;;;;;;;5055498;28;20072;-79
2023/06/28 06:04:23;;;;;;;7.07;4.88;;;;;;;;;;5045415;28;20073;-79
2023/06/28 06:06:50;;;;;;;6.28;4.45;;;;;;;;;;5059600;28;20036;-78
2023/06/28 06:09:17;;;;;;;8.25;4.80;;;;;;;;;;5063203;28;20479;-79
2023/06/28 06:11:43;;;;;;;6.45;4.90;;;;;;;;;;5061323;28;20416;-78
2023/06/28 06:14:10;;;;;;;6.68;4.68;;;;;;;;;;5057464;28;20049;-78
2023/06/28 06:16:38;;;;;;;8.18;5.35;;;;;;;;;;5059541;28;20073;-78
2023/06/28 06:19:04;;;;;;;6.28;4.50;;;;;;;;;;5058195;28;20071;-78
2023/06/28 06:21:31;;;;;;;6.53;4.82;;;;;;;;;;5059663;28;20104;-78
2023/06/28 06:23:59;;;;;;;5.88;4.00;;;;;;;;;;5039338;28;20133;-78
2023/06/28 06:26:27;;;;;;;6.53;4.13;;;;;;;;;;5049249;28;20090;-78
2023/06/28 06:28:54;;;;;;;6.47;4.40;;;;;;;;;;5057551;28;20103;-78
2023/06/28 06:31:20;;;;;;;6.22;3.72;;;;;;;;;;5056779;28;20496;-78
2023/06/28 06:33:48;;;;;;;9.20;4.95;;;;;;;;;;5054751;28;20412;-78
2023/06/28 06:36:15;;;;;;;8.45;4.30;;;;;;;;;;5060509;28;20037;-78
2023/06/28 06:38:42;;;;;;;5.40;4.00;;;;;;;;;;5062960;28;20049;-78
2023/06/28 06:41:09;;;;;;;6.15;3.92;;;;;;;;;;5067955;28;20048;-78
2023/06/28 06:43:35;;;;;;;5.28;3.45;;;;;;;;;;5077701;28;20045;-76
2023/06/28 06:46:02;;;;;;;7.28;4.00;;;;;;;;;;5053242;28;20087;-76
2023/06/28 06:48:28;;;;;;;8.23;4.13;;;;;;;;;;5054669;28;20049;-77
2023/06/28 06:50:56;;;;;;;6.07;4.18;;;;;;;;;;5054297;28;20041;-78
2023/06/28 06:53:23;;;;;;;7.93;4.30;;;;;;;;;;5055763;28;20095;-77
2023/06/28 06:55:50;;;;;;;7.63;4.30;;;;;;;;;;5048017;28;20045;-77
2023/06/28 06:58:16;;;;;;;7.93;4.40;;;;;;;;;;5062243;28;20155;-78
2023/06/28 07:00:43;;;;;;;6.65;3.20;;;;;;;;;;5057440;28;20044;-77
2023/06/28 07:03:10;;;;;;;5.47;3.55;;;;;;;;;;5048546;28;20075;-77
2023/06/28 07:05:37;;;;;;;5.40;3.20;;;;;;;;;;5057208;28;20128;-77
2023/06/28 07:08:05;;;;;;;5.30;3.55;;;;;;;;;;5043173;28;20397;-77
2023/06/28 07:10:31;;;;;;;4.88;3.45;;;;;;;;;;5045956;28;20148;-78
2023/06/28 07:12:58;;;;;;;6.93;3.85;;;;;;;;;;5066326;28;20048;-78
2023/06/28 07:15:25;;;;;;;6.22;3.78;;;;;;;;;;5068404;28;20550;-78
2023/06/28 07:17:53;;;;;;;5.68;3.65;;;;;;;;;;5056928;28;20048;-77
2023/06/28 07:20:20;;;;;;;7.82;4.47;;;;;;;;;;5053537;28;20436;-77
2023/06/28 07:22:47;;;;;;;6.97;4.63;;;;;;;;;;5049013;28;20137;-78
2023/06/28 07:25:16;;;;;;;5.60;3.60;;;;;;;;;;5056678;28;20123;-77
2023/06/28 07:27:43;;;;;;;6.78;3.85;;;;;;;;;;5039803;28;20072;-78
2023/06/28 07:30:11;;;;;;;6.53;3.10;;;;;;;;;;5047328;28;20084;-78
2023/06/28 07:32:37;;;;;;;4.75;3.08;;;;;;;;;;5053413;28;20068;-78
2023/06/28 07:35:05;;;;;;;5.82;3.83;;;;;;;;;;5055226;28;20075;-77
2023/06/28 07:37:31;;;;;;;5.00;3.55;;;;;;;;;;5057458;28;20051;-77
2023/06/28 07:39:58;;;;;;;5.05;3.30;;;;;;;;;;5049757;28;20576;-78
2023/06/28 07:42:27;;;;;;;5.45;3.13;;;;;;;;;;5040336;28;20132;-78
2023/06/28 07:44:54;;;;;;;4.63;2.97;;;;;;;;;;5055429;28;20081;-77
2023/06/28 07:47:21;;;;;;;6.30;3.30;;;;;;;;;;5048735;28;20080;-79
2023/06/28 07:49:47;;;;;;;6.38;3.45;;;;;;;;;;5039990;28;20460;-78
2023/06/28 07:52:14;;;;;;;5.13;3.10;;;;;;;;;;5038046;28;20109;-78
2023/06/28 07:54:41;;;;;;;4.40;2.92;;;;;;;;;;5038683;28;20465;-77
2023/06/28 07:57:09;;;;;;;5.22;2.63;;;;;;;;;;5034069;28;20540;-77
2023/06/28 07:59:37;;;;;;;5.10;3.13;;;;;;;;;;5038992;28;20029;-77
2023/06/28 08:02:04;;;;;;;5.10;3.13;;;;;;;;;;5067841;28;20056;-78
2023/06/28 08:04:30;;;;;;;7.03;3.75;;;;;;;;;;5075772;28;20029;-78
2023/06/28 08:06:57;;;;;;;4.80;3.05;;;;;;;;;;5074522;28;20053;-75
2023/06/28 08:09:24;;;;;;;5.28;3.00;;;;;;;;;;5073895;28;20044;-77
2023/06/28 08:11:50;;;;;;;4.25;3.28;;;;;;;;;;5075538;28;20055;-78
2023/06/28 08:14:17;;;;;;;6.03;2.85;;;;;;;;;;5073454;28;20056;-77
2023/06/28 08:16:47;;;;;;;5.30;3.13;;;;;;;;;;5074411;28;20044;-78
2023/06/28 08:19:14;;;;;;;6.37;3.47;;;;;;;;;;5074089;28;20032;-78
2023/06/28 08:21:41;;;;;;;5.80;2.85;;;;;;;;;;5073023;28;20282;-78
2023/06/28 08:24:08;;;;;;;4.90;2.80;;;;;;;;;;5073598;28;20056;-78
2023/06/28 08:26:36;;;;;;;6.05;3.80;;;;;;;;;;5070301;28;20049;-78
2023/06/28 08:29:02;;;;;;;4.78;2.72;;;;;;;;;;5068735;28;20049;-77
2023/06/28 08:31:29;;;;;;;4.70;2.78;;;;;;;;;;5069084;28;20464;-78
2023/06/28 08:33:58;;;;;;;7.28;2.78;;;;;;;;;;5068643;28;20078;-78
2023/06/28 08:36:25;;;;;;;5.47;3.53;;;;;;;;;;5071211;28;20045;-78
2023/06/28 08:38:51;;;;;;;4.78;2.67;;;;;;;;;;5071260;28;20041;-81
2023/06/28 08:41:18;;;;;;;6.45;3.22;;;;;;;;;;5066461;28;20045;-78
2023/06/28 08:43:49;;;;;;;6.50;3.08;;;;;;;;;;5066848;28;20083;-77
2023/06/28 08:46:15;;;;;;;7.15;3.03;;;;;;;;;;5073701;28;20040;-78
2023/06/28 08:48:43;;;;;;;5.97;3.15;;;;;;;;;;5072198;28;20073;-78
2023/06/28 08:51:11;;;;;;;6.07;2.90;;;;;;;;;;5071135;28;20044;-78
2023/06/28 08:53:43;;;;;;;10.77;4.90;;;;;;;;;;5072789;28;20049;-78
2023/06/28 08:56:11;;;;;;;4.50;2.50;;;;;;;;;;5070241;28;20065;-76
2023/06/28 08:58:41;;;;;;;7.03;2.92;;;;;;;;;;5061128;28;22431;-78
2023/06/28 09:01:07;;;;;;;4.25;2.67;;;;;;;;;;5059580;28;20045;-78
2023/06/28 09:03:39;;;;;;;5.53;3.22;;;;;;;;;;5052329;28;20083;-78
2023/06/28 09:06:06;;;;;;;5.25;2.63;;;;;;;;;;5041231;28;20141;-80
2023/06/28 09:08:35;;;;;;;5.22;2.88;;;;;;;;;;5041849;28;20049;-77
2023/06/28 09:11:03;;;;;;;4.32;2.83;;;;;;;;;;5050121;28;20045;-78
2023/06/28 09:13:31;;;;;;;5.82;3.08;;;;;;;;;;5058799;28;20049;-78
2023/06/28 09:15:58;;;;;;;6.28;3.40;;;;;;;;;;5059669;28;20200;-78
2023/06/28 09:18:24;;;;;;;5.72;2.88;;;;;;;;;;5057885;28;20040;-78
2023/06/28 09:20:53;;;;;;;5.75;2.83;;;;;;;;;;5054269;28;20468;-77
2023/06/28 09:23:24;;;;;;;5.43;2.92;;;;;;;;;;5057261;28;20075;-81
2023/06/28 09:25:52;;;;;;;6.70;2.88;;;;;;;;;;5060799;28;20049;-77
2023/06/28 09:28:20;;;;;;;6.30;2.65;;;;;;;;;;5050925;28;20128;-77
2023/06/28 09:30:52;;;;;;;4.93;2.75;;;;;;;;;;5058606;28;20049;-78
2023/06/28 09:33:19;;;;;;;4.90;2.90;;;;;;;;;;5062039;28;20102;-79
2023/06/28 09:35:45;;;;;;;5.60;2.40;;;;;;;;;;5055039;28;20041;-79
2023/06/28 09:38:12;;;;;;;5.97;3.08;;;;;;;;;;5055672;28;20045;-78
2023/06/28 09:40:39;;;;;;;5.55;2.65;;;;;;;;;;5052422;28;20033;-78
2023/06/28 09:43:14;;;;;;;4.70;2.83;;;;;;;;;;5056244;28;20034;-77
2023/06/28 09:45:41;;;;;;;6.50;2.67;;;;;;;;;;5053249;28;20092;-79
2023/06/28 09:48:08;;;;;;;4.53;2.80;;;;;;;;;;5043950;28;20235;-79
2023/06/28 09:50:37;;;;;;;4.72;2.70;;;;;;;;;;5042847;28;20109;-78
2023/06/28 09:53:07;;;;;;;5.65;3.40;;;;;;;;;;5058687;28;20041;-79
2023/06/28 09:55:34;;;;;;;5.05;3.13;;;;;;;;;;5054913;28;20076;-78
2023/06/28 09:58:02;;;;;;;6.38;2.85;;;;;;;;;;5058312;28;20063;-77
2023/06/28 10:00:31;;;;;;;9.45;4.35;;;;;;;;;;5058552;28;20175;-78
2023/06/28 10:02:59;;;;;;;6.47;2.97;;;;;;;;;;5058656;28;20044;-78
2023/06/28 10:05:26;;;;;;;6.55;3.17;;;;;;;;;;5060632;28;20041;-78
2023/06/28 10:07:53;;;;;;;5.18;3.30;;;;;;;;;;5056235;28;20098;-77
2023/06/28 10:10:20;;;;;;;6.68;3.08;;;;;;;;;;5055531;28;20128;-80
2023/06/28 10:12:47;;;;;;;5.50;2.67;;;;;;;;;;5055636;28;20128;-78
2023/06/28 10:15:17;;;;;;;5.80;3.10;;;;;;;;;;5054670;28;20575;-77
2023/06/28 10:17:46;;;;;;;5.63;3.33;;;;;;;;;;5071575;22;20520;-77
2023/06/28 10:20:13;;;;;;;5.50;3.35;;;;;;;;;;5074535;28;20135;-78
2023/06/28 10:22:40;;;;;;;4.63;2.78;;;;;;;;;;5075932;28;20049;-78
2023/06/28 10:25:08;;;;;;;5.18;3.00;;;;;;;;;;5083638;28;20642;-81
2023/06/28 10:27:36;;;;;;;5.60;3.38;;;;;;;;;;5081322;28;20053;-78
2023/06/28 10:30:04;;;;;;;5.95;3.05;;;;;;;;;;5078618;28;20079;-79
2023/06/28 10:32:31;;;;;;;5.50;3.00;;;;;;;;;;5077309;28;20055;-79
2023/06/28 10:35:00;;;;;;;7.65;3.38;;;;;;;;;;5077603;28;20109;-80
2023/06/28 10:37:26;;;;;;;5.43;3.10;;;;;;;;;;5076476;28;20075;-80
2023/06/28 10:39:54;;;;;;;6.07;3.10;;;;;;;;;;5076867;28;20044;-79
2023/06/28 10:42:21;;;;;;;4.57;2.95;;;;;;;;;;5076814;28;20060;-78
2023/06/28 10:44:53;;;;;;;7.75;3.47;;;;;;;;;;5077383;28;20078;-79
2023/06/28 10:47:20;;;;;;;5.43;3.15;;;;;;;;;;5077342;28;20099;-78
2023/06/28 10:50:10;;;;;;;5.45;2.75;;;;;;;;;;5079188;28;20091;-79
2023/06/28 10:52:46;;;;;;;5.47;2.78;;;;;;;;;;5080999;28;20079;-78
2023/06/28 10:55:13;;;;;;;4.93;3.28;;;;;;;;;;5079189;28;20047;-79
2023/06/28 10:57:40;;;;;;;5.40;2.70;;;;;;;;;;5079620;28;20752;-78
2023/06/28 11:00:11;;;;;;;5.60;2.90;;;;;;;;;;5080443;28;20045;-79
2023/06/28 11:02:54;;;;;;;5.10;2.88;;;;;;;;;;5080546;28;20048;-77
2023/06/28 11:05:52;;;;;;;5.20;3.47;;;;;;;;;;5090555;28;20054;-76
2023/06/28 11:08:19;;;;;;;4.60;2.58;;;;;;;;;;5096804;28;20170;-77
2023/06/28 11:10:48;;;;;;;5.53;3.15;;;;;;;;;;5095790;28;20049;-78
2023/06/28 11:13:31;;;;;;;5.30;3.30;;;;;;;;;;5084581;28;20055;-79
2023/06/28 11:16:07;;;;;;;5.32;2.90;;;;;;;;;;5080309;28;20049;-78
2023/06/28 11:18:34;;;;;;;5.57;2.85;;;;;;;;;;5077867;28;20850;-81
2023/06/28 11:21:03;;;;;;;5.55;2.80;;;;;;;;;;5080199;28;20040;-80
2023/06/28 11:26:52;;;;;;;5.25;3.33;;;;;;;;;;5071171;28;20044;-80
2023/06/28 11:29:21;;;;;;;5.55;3.13;;;;;;;;;;5081723;28;20206;-80
2023/06/28 11:31:49;;;;;;;4.90;2.63;;;;;;;;;;5077391;28;20049;-78
2023/06/28 11:34:17;;;;;;;4.25;2.45;;;;;;;;;;5076307;28;20059;-78
2023/06/28 11:36:46;;;;;;;6.68;3.15;;;;;;;;;;5074579;28;20045;-78
2023/06/28 11:39:15;;;;;;;5.50;2.80;;;;;;;;;;5074344;28;20532;-81
2023/06/28 11:41:42;;;;;;;5.35;3.38;;;;;;;;;;5063235;28;20128;-78
2023/06/28 11:44:09;;;;;;;4.63;3.00;;;;;;;;;;5054194;28;20076;-80
2023/06/28 11:46:36;;;;;;;5.05;3.13;;;;;;;;;;5055313;28;20121;-78
2023/06/28 11:49:03;;;;;;;5.38;2.92;;;;;;;;;;5066461;28;20044;-79
2023/06/28 11:51:31;;;;;;;4.78;3.00;;;;;;;;;;5071976;28;20052;-79
2023/06/28 11:53:59;;;;;;;4.82;2.63;;;;;;;;;;5070898;28;20083;-79
2023/06/28 11:56:40;;;;;;;6.15;3.20;;;;;;;;;;5063024;28;20053;-80
2023/06/28 11:59:26;;;;;;;;;;;;;;;;;;5072079;28;20083;-79
2023/06/28 12:02:05;;;;;;;4.25;2.15;;;;;;;;;;5071021;28;20019;-78
2023/06/28 12:04:33;;;;;;;5.13;2.25;;;;;;;;;;5074069;28;20159;-80
2023/06/28 12:07:01;;;;;;;4.88;2.33;;;;;;;;;;5071632;28;20521;-80
2023/06/28 12:09:39;;;;;;;5.00;2.42;;;;;;;;;;5071678;28;20082;-78
2023/06/28 12:12:07;;;;;;;5.15;2.60;;;;;;;;;;5071582;28;20044;-79
2023/06/28 12:14:39;;;;;;;5.07;3.08;;;;;;;;;;5069676;28;20477;-80
2023/06/28 12:17:06;;;;;;;4.53;2.28;;;;;;;;;;5070378;28;20048;-79
2023/06/28 12:19:35;;;;;;;4.18;2.42;;;;;;;;;;5066902;28;20040;-79
2023/06/28 12:22:02;;;;;;;3.92;2.88;;;;;;;;;;5068989;28;20040;-79
2023/06/28 12:24:32;;;;;;;5.20;2.50;;;;;;;;;;5069089;28;20057;-79
2023/06/28 12:26:59;;;;;;;;;;;;;;;;;;5067878;28;20045;-78
2023/06/28 12:29:29;;;;;;;5.38;2.40;;;;;;;;;;5070184;28;20035;-78
2023/06/28 12:31:58;;;;;;;4.68;2.05;;;;;;;;;;5072115;28;20049;-79
2023/06/28 12:34:25;;;;;;;5.30;2.72;;;;;;;;;;5072410;28;20131;-80
2023/06/28 12:36:54;;;;;;;5.30;2.45;;;;;;;;;;5072502;28;20091;-80
2023/06/28 12:39:25;;;;;;;5.45;2.28;;;;;;;;;;5065040;28;20518;-80
2023/06/28 12:42:03;;;;;;;5.45;2.20;;;;;;;;;;5072690;28;20483;-79
2023/06/28 12:44:29;;;;;;;4.95;2.15;;;;;;;;;;5073044;28;20478;-80
2023/06/28 12:46:57;;;;;;;4.97;2.60;;;;;;;;;;5082186;28;20072;-78
2023/06/28 12:49:25;;;;;;;5.07;2.17;;;;;;;;;;5089181;28;20110;-78
2023/06/28 12:51:52;;;;;;;5.97;2.38;;;;;;;;;;5072380;28;20068;-77
2023/06/28 12:54:20;;;;;;;5.00;2.60;;;;;;;;;;5071212;28;20094;-79
2023/06/28 12:56:49;;;;;;;6.47;2.78;;;;;;;;;;5070203;28;20558;-78
2023/06/28 12:59:17;;;;;;;4.93;2.57;;;;;;;;;;5068030;28;20116;-81
2023/06/28 13:01:44;;;;;;;3.80;2.00;;;;;;;;;;5064231;28;20148;-78
2023/06/28 13:04:12;;;;;;;4.22;2.40;;;;;;;;;;5071659;28;20127;-81
2023/06/28 13:06:40;;;;;;;3.58;2.03;;;;;;;;;;5069695;28;20103;-81
2023/06/28 13:09:15;;;;;;;11.75;4.47;;;;;;;;;;5072317;28;20470;-80
2023/06/28 13:11:42;;;;;;;4.55;2.47;;;;;;;;;;5073995;28;20545;-79
2023/06/28 13:14:12;;;;;;;4.40;1.88;;;;;;;;;;5074317;28;20079;-84
2023/06/28 13:16:41;;;;;;;;;;;;;;;;;;5060595;28;20106;-80
2023/06/28 13:19:12;;;;;;;4.05;2.10;;;;;;;;;;5067590;28;19942;-79
2023/06/28 13:21:39;;;;;;;5.07;2.03;;;;;;;;;;5069854;28;20060;-79
2023/06/28 13:24:07;;;;;;;4.60;2.25;;;;;;;;;;5074403;28;20151;-79
2023/06/28 13:26:33;;;;;;;4.47;1.92;;;;;;;;;;5068729;28;20132;-80
2023/06/28 13:29:00;;;;;;;5.28;2.42;;;;;;;;;;5073790;28;20068;-76
2023/06/28 13:31:27;;;;;;;6.13;2.92;;;;;;;;;;5066873;28;20072;-78
2023/06/28 13:33:55;;;;;;;3.63;2.22;;;;;;;;;;5054394;28;20078;-77
2023/06/28 13:36:23;;;;;;;3.60;2.00;;;;;;;;;;5058390;28;20402;-78
2023/06/28 13:38:50;;;;;;;4.25;2.40;;;;;;;;;;5067929;28;20052;-79
2023/06/28 13:41:17;;;;;;;4.43;1.90;;;;;;;;;;5076766;28;20072;-78
2023/06/28 13:43:43;;;;;;;5.75;2.65;;;;;;;;;;5079505;28;20036;-78
2023/06/28 13:46:10;;;;;;;4.55;2.03;;;;;;;;;;5070077;28;20064;-77
2023/06/28 13:48:37;;;;;;;2.97;1.50;;;;;;;;;;5063277;28;20076;-78
2023/06/28 13:51:05;;;;;;;3.35;1.67;;;;;;;;;;5059774;28;20044;-78
2023/06/28 13:53:32;;;;;;;3.25;1.85;;;;;;;;;;5068915;28;20049;-77
2023/06/28 13:55:59;;;;;;;4.30;1.92;;;;;;;;;;5078786;28;20106;-78
2023/06/28 13:58:27;;;;;;;3.28;1.83;;;;;;;;;;5081051;28;20045;-77
2023/06/28 14:01:08;;;;;;;4.45;1.85;;;;;;;;;;5080812;28;20045;-78
2023/06/28 14:03:35;;;;;;;6.03;2.60;;;;;;;;;;5077886;28;20415;-79
2023/06/28 14:06:02;;;;;;;3.88;1.90;;;;;;;;;;5073470;28;20052;-78
2023/06/28 14:08:30;;;;;;;4.03;2.08;;;;;;;;;;5065473;28;20052;-78
2023/06/28 14:10:57;;;;;;;3.72;1.90;;;;;;;;;;5056377;28;20065;-79
2023/06/28 14:13:24;;;;;;;4.13;2.00;;;;;;;;;;5070667;28;20044;-78
2023/06/28 14:16:33;;;;;;;6.38;2.30;;;;;;;;;;5070648;28;20080;-78
2023/06/28 14:19:00;;;;;;;3.65;1.70;;;;;;;;;;5074459;28;20084;-78
2023/06/28 14:21:26;;;;;;;4.20;1.80;;;;;;;;;;5074496;28;20706;-79
2023/06/28 14:24:00;;;;;;;3.60;1.65;;;;;;;;;;5074811;28;20048;-79
2023/06/28 14:26:36;;;;;;;3.95;2.13;;;;;;;;;;5077293;28;20072;-79
2023/06/28 14:31:50;;;;;;;3.90;1.85;;;;;;;;;;5070809;28;20083;-78
2023/06/28 14:34:17;;;;;;;5.78;3.50;;;;;;;;;;5068734;28;20607;-78
2023/06/28 14:36:43;;;;;;;4.15;1.95;;;;;;;;;;5072086;28;20049;-79
2023/06/28 14:39:12;;;;;;;5.05;2.00;;;;;;;;;;5063714;28;20049;-77
2023/06/28 14:41:38;;;;;;;5.38;3.22;;;;;;;;;;5067142;28;20037;-78
2023/06/28 14:44:11;;;;;;;5.50;3.10;;;;;;;;;;5068180;28;20099;-78
2023/06/28 14:46:38;;;;;;;4.70;2.53;;;;;;;;;;5065528;28;20049;-76
2023/06/28 14:49:05;;;;;;;3.45;1.67;;;;;;;;;;5058900;28;20077;-79
2023/06/28 14:51:32;;;;;;;3.58;2.03;;;;;;;;;;5052233;28;20088;-76
2023/06/28 14:53:59;;;;;;;3.67;2.20;;;;;;;;;;5052758;28;20131;-77